Time;durP1;ratioP1;P1;durP2;ratioP2;P2;SDS_P1;SDS_P2;PMS_P1;PMS_P2;Temp;Humidity;BMP_temperature;BMP_pressure;BME280_temperature;BME280_humidity;BME280_pressure;Samples;Min_cycle;Max_cycle;Signal;HPM_P1;HPM_P2
2023/05/12 00:02:17;;;;;;;3.65;2.17;;;9.00;99.90;;;;;;5011020;28;20032;-39
2023/05/12 00:04:42;;;;;;;3.60;2.00;;;8.90;99.90;;;;;;5011017;28;20034;-43
2023/05/12 00:07:08;;;;;;;3.47;1.85;;;8.90;99.90;;;;;;5010953;28;20445;-50
2023/05/12 00:09:33;;;;;;;2.97;1.60;;;8.90;99.90;;;;;;5011004;28;20026;-39
2023/05/12 00:12:00;;;;;;;7.00;2.00;;;8.80;99.90;;;;;;5010808;28;20038;-39
2023/05/12 00:14:26;;;;;;;3.45;2.00;;;8.80;99.90;;;;;;5010605;28;20092;-40
2023/05/12 00:16:51;;;;;;;3.17;1.83;;;8.80;99.90;;;;;;5010944;28;20014;-40
2023/05/12 00:19:18;;;;;;;2.58;1.70;;;8.80;99.90;;;;;;5010743;28;20034;-41
2023/05/12 00:21:44;;;;;;;3.75;1.83;;;8.70;99.90;;;;;;5010648;28;20030;-40
2023/05/12 00:24:10;;;;;;;5.40;2.20;;;8.70;99.90;;;;;;5010255;28;20041;-42
2023/05/12 00:26:35;;;;;;;2.75;1.65;;;8.70;99.90;;;;;;4999181;28;20084;-42
2023/05/12 00:29:01;;;;;;;3.63;2.08;;;8.70;99.90;;;;;;4991317;28;20022;-50
2023/05/12 00:31:29;;;;;;;5.10;2.60;;;8.70;99.90;;;;;;4990922;28;20419;-58
2023/05/12 00:33:55;;;;;;;5.50;2.70;;;8.60;99.90;;;;;;4990856;28;20045;-46
2023/05/12 00:36:20;;;;;;;6.80;2.55;;;8.60;99.90;;;;;;4990894;28;20023;-49
2023/05/12 00:38:46;;;;;;;4.35;2.53;;;8.60;99.90;;;;;;4992806;28;20034;-54
2023/05/12 00:41:12;;;;;;;5.78;2.50;;;8.60;99.90;;;;;;4994523;28;20042;-52
2023/05/12 00:43:37;;;;;;;4.28;2.00;;;8.70;99.90;;;;;;4994809;28;20027;-52
2023/05/12 00:46:05;;;;;;;3.95;1.98;;;8.70;99.90;;;;;;4994553;28;20038;-41
2023/05/12 00:48:35;;;;;;;4.22;2.25;;;8.60;99.90;;;;;;4994647;28;20058;-49
2023/05/12 00:51:03;;;;;;;3.33;1.83;;;8.60;99.90;;;;;;4994548;28;20038;-39
2023/05/12 00:53:30;;;;;;;3.10;1.98;;;8.50;99.90;;;;;;4994670;28;20061;-54
2023/05/12 00:55:56;;;;;;;4.97;2.20;;;8.50;99.90;;;;;;4994606;28;20030;-47
2023/05/12 00:58:22;;;;;;;5.10;2.55;;;8.50;99.90;;;;;;4994390;28;20026;-52
2023/05/12 01:00:48;;;;;;;4.78;2.25;;;8.40;99.90;;;;;;4994541;28;20033;-45
2023/05/12 01:03:15;;;;;;;5.28;2.63;;;8.40;99.90;;;;;;5008941;28;20494;-43
2023/05/12 01:05:59;;;;;;;8.73;4.25;;;8.40;99.90;;;;;;4994420;28;20026;-41
2023/05/12 01:08:25;;;;;;;7.95;4.25;;;8.50;99.90;;;;;;4994592;28;20037;-41
2023/05/12 01:10:51;;;;;;;7.70;4.00;;;8.50;99.90;;;;;;5008387;28;20030;-41
2023/05/12 01:13:17;;;;;;;6.95;3.78;;;8.60;99.90;;;;;;5013905;28;20041;-52
2023/05/12 01:15:46;;;;;;;7.28;3.83;;;8.60;99.90;;;;;;5005840;28;20026;-40
2023/05/12 01:18:14;;;;;;;8.83;4.53;;;8.70;99.90;;;;;;5009674;28;20117;-48
2023/05/12 01:20:43;;;;;;;9.20;4.10;;;8.70;99.90;;;;;;5021342;28;20064;-49
2023/05/12 01:23:09;;;;;;;7.95;4.07;;;8.70;99.90;;;;;;5007846;28;20061;-40
2023/05/12 01:25:38;;;;;;;7.75;4.88;;;8.80;99.90;;;;;;5013234;28;20022;-60
2023/05/12 01:28:04;;;;;;;10.07;5.45;;;8.80;99.90;;;;;;5013154;28;20116;-50
2023/05/12 01:30:31;;;;;;;10.40;5.28;;;8.80;99.90;;;;;;5013331;28;20365;-54
2023/05/12 01:32:57;;;;;;;8.73;4.53;;;8.80;99.90;;;;;;5013191;28;20034;-52
2023/05/12 01:35:23;;;;;;;9.45;4.60;;;8.90;99.90;;;;;;5013448;28;20022;-44
2023/05/12 01:37:48;;;;;;;6.82;4.43;;;8.90;99.90;;;;;;5013198;28;20041;-56
2023/05/12 01:40:15;;;;;;;7.00;4.20;;;8.90;99.90;;;;;;5013176;28;20054;-48
2023/05/12 01:42:41;;;;;;;6.38;3.72;;;8.90;99.90;;;;;;5013185;28;20126;-51
2023/05/12 01:45:08;;;;;;;4.13;2.45;;;9.00;99.90;;;;;;5013191;28;20445;-41
2023/05/12 01:47:33;;;;;;;6.65;3.00;;;9.00;99.90;;;;;;5013261;28;20033;-51
2023/05/12 01:49:59;;;;;;;5.15;3.22;;;8.90;99.90;;;;;;5012146;28;20030;-56
2023/05/12 01:52:25;;;;;;;7.13;2.95;;;9.00;99.90;;;;;;5013095;28;20029;-59
2023/05/12 01:54:50;;;;;;;5.50;2.25;;;9.00;99.90;;;;;;5012939;28;20069;-46
2023/05/12 01:57:16;;;;;;;5.93;2.35;;;9.00;99.90;;;;;;5012996;28;20128;-46
2023/05/12 01:59:42;;;;;;;1.55;1.10;;;9.00;99.90;;;;;;5012998;28;20017;-44
2023/05/12 02:02:08;;;;;;;5.40;2.40;;;9.00;99.90;;;;;;5008156;28;20081;-48
2023/05/12 02:04:33;;;;;;;5.85;2.40;;;8.90;99.90;;;;;;5005630;28;20495;-49
2023/05/12 02:06:59;;;;;;;4.85;2.35;;;8.90;99.90;;;;;;4996172;28;20489;-44
2023/05/12 02:09:25;;;;;;;3.22;1.92;;;8.90;99.90;;;;;;4996194;28;20041;-44
2023/05/12 02:11:51;;;;;;;4.78;2.55;;;8.90;99.90;;;;;;5004413;28;20435;-46
2023/05/12 02:14:16;;;;;;;4.75;2.45;;;8.90;99.90;;;;;;5004679;28;20038;-55
2023/05/12 02:16:42;;;;;;;5.55;2.88;;;8.90;99.90;;;;;;4993190;28;20022;-53
2023/05/12 02:19:08;;;;;;;3.83;2.17;;;9.00;99.90;;;;;;4992775;28;20446;-56
2023/05/12 02:21:33;;;;;;;3.30;1.88;;;9.00;99.90;;;;;;4992794;28;20063;-46
2023/05/12 02:23:59;;;;;;;4.53;2.40;;;9.10;99.90;;;;;;4994477;28;20054;-55
2023/05/12 02:26:24;;;;;;;3.95;2.33;;;9.20;99.90;;;;;;5012339;28;20133;-57
2023/05/12 02:28:50;;;;;;;2.78;1.50;;;9.30;99.90;;;;;;5012434;28;20024;-54
2023/05/12 02:31:16;;;;;;;2.47;1.58;;;9.40;99.90;;;;;;5012299;28;20080;-46
2023/05/12 02:33:41;;;;;;;3.28;1.35;;;9.50;99.90;;;;;;5012219;28;20030;-46
2023/05/12 02:36:07;;;;;;;2.33;1.27;;;9.70;99.90;;;;;;5012344;28;20018;-39
2023/05/12 02:38:33;;;;;;;0.47;0.47;;;9.80;99.90;;;;;;5012180;28;20029;-39
2023/05/12 02:40:58;;;;;;;0.63;0.57;;;10.00;99.90;;;;;;5011927;28;20045;-46
2023/05/12 02:43:24;;;;;;;1.67;0.85;;;10.10;99.90;;;;;;5012085;28;20028;-48
2023/05/12 02:45:50;;;;;;;0.85;0.65;;;10.20;99.90;;;;;;5012107;28;20026;-46
2023/05/12 02:48:16;;;;;;;0.95;0.60;;;10.20;99.90;;;;;;5012000;28;20473;-51
2023/05/12 02:50:42;;;;;;;1.25;0.73;;;10.30;99.90;;;;;;5011979;28;20121;-49
2023/05/12 02:53:07;;;;;;;0.47;0.38;;;10.40;99.90;;;;;;5011884;28;20140;-41
2023/05/12 02:55:33;;;;;;;1.45;0.60;;;10.50;99.90;;;;;;5011775;28;20037;-43
2023/05/12 02:57:59;;;;;;;0.95;0.38;;;10.50;99.90;;;;;;5011844;28;20473;-43
2023/05/12 03:00:24;;;;;;;1.80;0.50;;;10.50;99.90;;;;;;5011743;28;20551;-45
2023/05/12 03:02:50;;;;;;;0.57;0.40;;;10.60;99.90;;;;;;5010916;28;20048;-58
2023/05/12 03:05:16;;;;;;;0.30;0.30;;;10.60;99.90;;;;;;5011429;28;20025;-53
2023/05/12 03:07:41;;;;;;;0.30;0.30;;;10.70;99.90;;;;;;5011648;28;20033;-52
2023/05/12 03:10:09;;;;;;;0.47;0.47;;;10.70;99.90;;;;;;5011350;28;20029;-52
2023/05/12 03:12:35;;;;;;;0.45;0.38;;;10.70;99.90;;;;;;5011746;28;20030;-44
2023/05/12 03:15:00;;;;;;;0.30;0.30;;;10.80;99.90;;;;;;5011384;28;20052;-51
2023/05/12 03:17:26;;;;;;;0.10;0.10;;;10.80;99.90;;;;;;5011532;28;20022;-51
2023/05/12 03:19:52;;;;;;;0.22;0.22;;;10.80;99.90;;;;;;5011419;28;20105;-45
2023/05/12 03:22:17;;;;;;;0.32;0.32;;;10.80;99.90;;;;;;5011211;28;20678;-47
2023/05/12 03:24:43;;;;;;;0.32;0.32;;;10.80;99.90;;;;;;5011275;28;20018;-41
2023/05/12 03:27:08;;;;;;;0.30;0.30;;;10.80;99.90;;;;;;5011611;28;20045;-46
2023/05/12 03:29:35;;;;;;;0.75;0.47;;;10.90;99.90;;;;;;5011216;28;20022;-55
2023/05/12 03:32:00;;;;;;;0.25;0.25;;;10.90;99.90;;;;;;5011571;28;20109;-49
2023/05/12 03:34:26;;;;;;;0.25;0.25;;;10.90;99.90;;;;;;5026232;28;20132;-52
2023/05/12 03:36:52;;;;;;;0.30;0.30;;;10.90;99.90;;;;;;5011094;28;20021;-45
2023/05/12 03:39:17;;;;;;;0.43;0.43;;;11.00;99.90;;;;;;5011176;28;20037;-46
2023/05/12 03:41:43;;;;;;;0.20;0.20;;;11.00;99.90;;;;;;5010938;28;20084;-57
2023/05/12 03:44:09;;;;;;;0.90;0.65;;;11.00;99.90;;;;;;5011275;28;20025;-52
2023/05/12 03:46:35;;;;;;;0.40;0.30;;;11.00;99.90;;;;;;5010915;28;20053;-49
2023/05/12 03:49:01;;;;;;;0.40;0.40;;;11.00;99.90;;;;;;5011074;28;20066;-51
2023/05/12 03:51:30;;;;;;;0.20;0.20;;;11.00;99.90;;;;;;5010961;28;20503;-51
2023/05/12 03:53:55;;;;;;;0.10;0.10;;;11.00;99.90;;;;;;5025796;28;20538;-51
2023/05/12 03:56:21;;;;;;;0.35;0.35;;;11.10;99.90;;;;;;5011006;28;20765;-49
2023/05/12 03:58:47;;;;;;;0.45;0.45;;;11.10;99.90;;;;;;5010811;28;20495;-48
2023/05/12 04:01:13;;;;;;;0.20;0.20;;;11.10;99.90;;;;;;5010743;28;20026;-55
2023/05/12 04:03:40;;;;;;;0.95;0.30;;;11.10;99.90;;;;;;5010851;28;20021;-49
2023/05/12 04:06:06;;;;;;;0.50;0.50;;;11.10;99.90;;;;;;5010957;28;20025;-44
2023/05/12 04:08:32;;;;;;;1.02;0.45;;;11.10;99.90;;;;;;5010658;28;20083;-58
2023/05/12 04:10:59;;;;;;;0.30;0.30;;;11.10;99.90;;;;;;5026045;28;20026;-55
2023/05/12 04:13:26;;;;;;;0.20;0.20;;;11.10;99.90;;;;;;5012182;28;20049;-45
2023/05/12 04:15:55;;;;;;;0.50;0.50;;;11.10;99.90;;;;;;5015064;28;20022;-42
2023/05/12 04:18:21;;;;;;;0.43;0.43;;;11.10;99.90;;;;;;5014768;28;20065;-41
2023/05/12 04:20:46;;;;;;;0.30;0.30;;;11.20;99.90;;;;;;5029889;28;20115;-42
2023/05/12 04:23:14;;;;;;;0.32;0.32;;;11.20;99.90;;;;;;5014725;28;20057;-43
2023/05/12 04:25:42;;;;;;;0.50;0.50;;;11.20;99.90;;;;;;5014389;28;20041;-55
2023/05/12 04:28:08;;;;;;;0.30;0.30;;;11.20;99.90;;;;;;5014883;28;20481;-45
2023/05/12 04:30:35;;;;;;;0.32;0.32;;;11.20;99.90;;;;;;5014489;28;20497;-53
2023/05/12 04:33:00;;;;;;;0.35;0.28;;;11.20;99.90;;;;;;5014581;28;20034;-43
2023/05/12 04:35:27;;;;;;;1.08;0.65;;;11.20;99.90;;;;;;5014635;28;20026;-56
2023/05/12 04:37:52;;;;;;;0.20;0.20;;;11.20;99.90;;;;;;5014286;28;20076;-47
2023/05/12 04:40:18;;;;;;;0.28;0.28;;;11.20;99.90;;;;;;5014434;28;20480;-52
2023/05/12 04:42:44;;;;;;;1.20;0.68;;;11.20;99.90;;;;;;5014185;28;20112;-46
2023/05/12 04:45:10;;;;;;;0.60;0.43;;;11.20;99.90;;;;;;5014467;28;20065;-53
2023/05/12 04:47:35;;;;;;;0.63;0.47;;;11.10;99.90;;;;;;5014273;28;20038;-47
2023/05/12 04:50:01;;;;;;;0.30;0.30;;;11.10;99.90;;;;;;5003030;28;20054;-49
2023/05/12 04:52:27;;;;;;;0.20;0.20;;;11.20;99.90;;;;;;4994526;28;20030;-49
2023/05/12 04:54:52;;;;;;;0.30;0.30;;;11.10;99.90;;;;;;4994368;28;20108;-46
2023/05/12 04:57:18;;;;;;;0.20;0.20;;;11.10;99.90;;;;;;4994468;28;20018;-41
2023/05/12 04:59:44;;;;;;;0.20;0.20;;;11.10;99.90;;;;;;4994555;28;20041;-43
2023/05/12 05:02:10;;;;;;;0.28;0.28;;;11.10;99.90;;;;;;4994358;28;20030;-56
2023/05/12 05:04:36;;;;;;;0.20;0.20;;;11.10;99.90;;;;;;4994475;28;20037;-41
2023/05/12 05:07:02;;;;;;;0.20;0.20;;;11.10;99.90;;;;;;4994165;28;20435;-55
2023/05/12 05:09:27;;;;;;;0.30;0.30;;;11.10;99.90;;;;;;4994553;28;20053;-48
2023/05/12 05:11:53;;;;;;;0.38;0.30;;;11.10;99.90;;;;;;4994319;28;20058;-51
2023/05/12 05:14:19;;;;;;;0.38;0.38;;;11.10;99.90;;;;;;4994039;28;20042;-53
2023/05/12 05:16:45;;;;;;;0.20;0.20;;;11.10;99.90;;;;;;4994443;28;20027;-48
2023/05/12 05:19:12;;;;;;;0.20;0.20;;;11.10;99.90;;;;;;5009044;28;20034;-51
2023/05/12 05:21:38;;;;;;;0.20;0.20;;;11.10;99.90;;;;;;4994153;28;20062;-52
2023/05/12 05:24:04;;;;;;;0.30;0.30;;;11.20;99.90;;;;;;4996177;28;20469;-45
2023/05/12 05:26:30;;;;;;;0.10;0.10;;;11.20;99.90;;;;;;5012873;28;20057;-47
2023/05/12 05:28:55;;;;;;;0.35;0.30;;;11.20;99.90;;;;;;5013595;28;20065;-52
2023/05/12 05:31:21;;;;;;;0.30;0.30;;;11.20;99.90;;;;;;5013601;28;20033;-43
2023/05/12 05:33:47;;;;;;;0.20;0.20;;;11.20;99.90;;;;;;5013455;28;20034;-49
2023/05/12 05:36:13;;;;;;;0.10;0.10;;;11.20;99.90;;;;;;5013292;28;20536;-50
2023/05/12 05:38:38;;;;;;;1.48;0.40;;;11.30;99.90;;;;;;5013307;28;20083;-52
2023/05/12 05:41:04;;;;;;;0.20;0.20;;;11.30;99.90;;;;;;5013281;28;20400;-43
2023/05/12 05:43:30;;;;;;;0.55;0.40;;;11.40;99.90;;;;;;5013527;28;20072;-41
2023/05/12 05:45:57;;;;;;;0.10;0.10;;;11.50;99.90;;;;;;5013138;28;20528;-41
2023/05/12 05:48:23;;;;;;;0.10;0.10;;;11.50;99.90;;;;;;5013165;28;20437;-49
2023/05/12 05:50:50;;;;;;;0.15;0.15;;;11.60;99.90;;;;;;5012969;28;20033;-41
2023/05/12 05:53:19;;;;;;;0.20;0.20;;;11.60;99.90;;;;;;5013069;28;20084;-45
2023/05/12 05:55:45;;;;;;;0.10;0.10;;;11.80;99.90;;;;;;5013132;28;20022;-46
2023/05/12 05:58:11;;;;;;;0.20;0.20;;;11.90;99.90;;;;;;5012904;28;20548;-42
2023/05/12 06:00:37;;;;;;;0.20;0.20;;;11.90;99.90;;;;;;5013063;28;20018;-43
2023/05/12 06:03:03;;;;;;;0.10;0.10;;;11.90;99.90;;;;;;5012833;28;20040;-41
2023/05/12 06:05:29;;;;;;;0.20;0.20;;;12.10;99.90;;;;;;5012907;28;20076;-42
2023/05/12 06:07:54;;;;;;;0.10;0.10;;;12.10;99.90;;;;;;5012867;28;20026;-41
2023/05/12 06:10:20;;;;;;;0.10;0.10;;;12.10;99.90;;;;;;5011301;28;20029;-44
2023/05/12 06:12:46;;;;;;;0.13;0.13;;;12.20;99.90;;;;;;5012758;28;20036;-42
2023/05/12 06:15:12;;;;;;;0.10;0.10;;;12.20;99.90;;;;;;5011300;28;20069;-41
2023/05/12 06:17:38;;;;;;;0.10;0.10;;;12.20;99.90;;;;;;5012580;28;20044;-43
2023/05/12 06:20:05;;;;;;;0.65;0.65;;;12.20;99.90;;;;;;5012437;28;20033;-44
2023/05/12 06:22:32;;;;;;;0.20;0.20;;;12.20;99.90;;;;;;5012562;28;20068;-44
2023/05/12 06:24:57;;;;;;;0.40;0.40;;;12.10;99.90;;;;;;5012542;28;20116;-41
2023/05/12 06:27:23;;;;;;;0.30;0.30;;;12.20;99.90;;;;;;5012234;28;20113;-41
2023/05/12 06:29:50;;;;;;;0.20;0.20;;;12.10;99.90;;;;;;5012443;28;20029;-40
2023/05/12 06:32:15;;;;;;;0.50;0.40;;;12.10;99.90;;;;;;5010986;28;20093;-42
2023/05/12 06:34:41;;;;;;;0.20;0.20;;;12.10;99.90;;;;;;5012266;28;20037;-45
2023/05/12 06:37:06;;;;;;;0.10;0.10;;;12.10;99.90;;;;;;5011975;28;20026;-44
2023/05/12 06:39:32;;;;;;;0.20;0.20;;;12.10;99.90;;;;;;5011888;28;20037;-46
2023/05/12 06:41:57;;;;;;;0.20;0.20;;;12.00;99.90;;;;;;5012160;28;20115;-43
2023/05/12 06:44:23;;;;;;;0.20;0.20;;;12.10;99.90;;;;;;5012028;28;20030;-41
2023/05/12 06:46:49;;;;;;;0.38;0.38;;;12.10;99.90;;;;;;5011902;28;20029;-41
2023/05/12 06:49:14;;;;;;;0.20;0.20;;;12.20;99.90;;;;;;5012018;28;20042;-42
2023/05/12 06:51:40;;;;;;;0.43;0.43;;;12.20;99.90;;;;;;5011862;28;20033;-41
2023/05/12 06:54:06;;;;;;;0.20;0.20;;;12.30;99.90;;;;;;5011859;28;20046;-46
2023/05/12 06:56:32;;;;;;;0.20;0.20;;;12.30;99.90;;;;;;5012067;28;20030;-41
2023/05/12 06:59:01;;;;;;;0.10;0.10;;;12.40;99.90;;;;;;5011797;28;20116;-41
2023/05/12 07:01:30;;;;;;;0.15;0.15;;;12.40;99.90;;;;;;5009198;28;20026;-41
2023/05/12 07:03:57;;;;;;;0.20;0.20;;;12.60;99.90;;;;;;5001518;28;20056;-41
2023/05/12 07:06:26;;;;;;;0.20;0.20;;;12.60;99.90;;;;;;4992051;28;20176;-41
2023/05/12 07:08:52;;;;;;;0.10;0.10;;;12.70;99.90;;;;;;4990692;28;20026;-50
2023/05/12 07:11:19;;;;;;;0.10;0.10;;;12.80;99.90;;;;;;4992195;28;20501;-41
2023/05/12 07:13:49;;;;;;;0.10;0.10;;;13.00;99.90;;;;;;4991917;28;20497;-42
2023/05/12 07:16:15;;;;;;;0.20;0.20;;;13.20;99.90;;;;;;4991973;28;20105;-43
2023/05/12 07:18:42;;;;;;;0.10;0.10;;;13.20;99.90;;;;;;4991958;28;20033;-47
2023/05/12 07:21:07;;;;;;;0.10;0.10;;;13.30;99.90;;;;;;4991741;28;20023;-46
2023/05/12 07:23:33;;;;;;;0.20;0.20;;;13.30;99.90;;;;;;4991815;28;20109;-49
2023/05/12 07:26:01;;;;;;;0.28;0.20;;;13.40;99.90;;;;;;5010285;28;20018;-48
2023/05/12 07:28:28;;;;;;;1.05;0.73;;;13.50;99.90;;;;;;5011417;28;20037;-52
2023/05/12 07:30:54;;;;;;;0.32;0.20;;;13.90;99.90;;;;;;5010354;28;20084;-50
2023/05/12 07:33:19;;;;;;;0.50;0.50;;;14.40;99.90;;;;;;5011421;28;20042;-42
2023/05/12 07:35:45;;;;;;;0.10;0.10;;;14.70;99.90;;;;;;5011532;28;20104;-41
2023/05/12 07:38:11;;;;;;;0.20;0.20;;;14.90;99.90;;;;;;5011648;28;20623;-44
2023/05/12 07:40:36;;;;;;;0.10;0.10;;;14.90;99.90;;;;;;5011167;28;20069;-49
2023/05/12 07:43:02;;;;;;;0.10;0.10;;;14.80;99.90;;;;;;5011155;28;20073;-53
2023/05/12 07:45:28;;;;;;;0.30;0.30;;;14.70;99.90;;;;;;5011293;28;20030;-47
2023/05/12 07:47:53;;;;;;;0.85;0.47;;;14.60;99.90;;;;;;5010445;28;20030;-50
2023/05/12 07:50:20;;;;;;;0.20;0.20;;;14.50;99.90;;;;;;5011222;28;20445;-53
2023/05/12 07:52:50;;;;;;;1.02;0.47;;;14.50;99.90;;;;;;5004033;28;20026;-51
2023/05/12 07:55:16;;;;;;;0.15;0.13;;;14.50;99.90;;;;;;4991555;28;20032;-53
2023/05/12 07:57:42;;;;;;;0.10;0.10;;;14.50;99.90;;;;;;5000241;28;20503;-54
2023/05/12 08:00:10;;;;;;;0.15;0.15;;;14.60;99.90;;;;;;5004964;28;20022;-44
2023/05/12 08:02:39;;;;;;;0.20;0.20;;;14.80;99.90;;;;;;4996216;28;20015;-49
2023/05/12 08:05:06;;;;;;;0.20;0.20;;;14.70;99.90;;;;;;4990228;28;20032;-42
2023/05/12 08:07:32;;;;;;;0.20;0.20;;;14.70;99.90;;;;;;4991378;28;20042;-56
2023/05/12 08:09:57;;;;;;;0.10;0.10;;;14.70;99.90;;;;;;4983876;28;20386;-43
2023/05/12 08:12:23;;;;;;;0.20;0.15;;;14.90;99.90;;;;;;4988867;28;20382;-45
2023/05/12 08:14:49;;;;;;;0.10;0.10;;;15.50;99.90;;;;;;4990914;28;20026;-46
2023/05/12 08:17:17;;;;;;;0.20;0.20;;;16.70;99.90;;;;;;4991270;28;20382;-42
2023/05/12 08:19:43;;;;;;;0.20;0.20;;;17.80;99.90;;;;;;4991131;28;20062;-42
2023/05/12 08:22:09;;;;;;;0.10;0.10;;;18.30;99.90;;;;;;4991012;28;20097;-41
2023/05/12 08:24:34;;;;;;;0.32;0.20;;;18.80;99.90;;;;;;4990828;28;20516;-41
2023/05/12 08:27:00;;;;;;;0.20;0.20;;;19.10;99.90;;;;;;5003313;28;20114;-42
2023/05/12 08:29:26;;;;;;;0.10;0.10;;;19.40;99.90;;;;;;5004592;28;20049;-45
2023/05/12 08:31:51;;;;;;;0.10;0.10;;;19.80;99.90;;;;;;4987326;28;20097;-46
2023/05/12 08:34:17;;;;;;;0.20;0.20;;;20.20;99.90;;;;;;4987802;28;20034;-43
2023/05/12 08:36:43;;;;;;;0.10;0.10;;;20.90;99.90;;;;;;4990917;28;20381;-43
2023/05/12 08:39:11;;;;;;;0.10;0.10;;;21.00;99.90;;;;;;4986192;28;20409;-42
2023/05/12 08:42:01;;;;;;;0.27;0.27;;;21.10;98.90;;;;;;4991538;28;20055;-42
2023/05/12 08:44:27;;;;;;;0.10;0.10;;;21.50;99.90;;;;;;4994709;28;20268;-43
2023/05/12 08:46:55;;;;;;;0.20;0.20;;;21.40;95.60;;;;;;4994110;28;20031;-49
2023/05/12 08:49:23;;;;;;;0.10;0.10;;;21.40;95.40;;;;;;4998123;28;20042;-42
2023/05/12 08:51:52;;;;;;;0.10;0.10;;;21.30;95.30;;;;;;4990937;28;20030;-43
2023/05/12 08:54:19;;;;;;;0.47;0.20;;;21.10;94.90;;;;;;4993586;28;20065;-42
2023/05/12 08:56:46;;;;;;;0.22;0.22;;;21.40;94.90;;;;;;4990947;28;20491;-46
2023/05/12 08:59:12;;;;;;;0.10;0.10;;;21.90;96.50;;;;;;4991925;28;20283;-42
2023/05/12 09:01:41;;;;;;;0.10;0.10;;;21.80;94.70;;;;;;4994409;28;20026;-45
2023/05/12 09:04:08;;;;;;;0.20;0.20;;;21.80;94.00;;;;;;4993271;28;20026;-41
2023/05/12 09:06:34;;;;;;;0.10;0.10;;;21.30;93.40;;;;;;5003156;28;20026;-42
2023/05/12 09:09:01;;;;;;;0.10;0.10;;;21.30;93.90;;;;;;5006682;28;20083;-42
2023/05/12 09:11:27;;;;;;;0.20;0.20;;;21.60;93.40;;;;;;5012505;28;20485;-43
2023/05/12 09:14:01;;;;;;;0.10;0.10;;;21.70;90.80;;;;;;4994324;28;20096;-40
2023/05/12 09:16:31;;;;;;;0.05;0.05;;;21.50;92.70;;;;;;4994340;28;20025;-43
2023/05/12 09:18:59;;;;;;;0.10;0.10;;;21.40;90.40;;;;;;4993012;28;20041;-42
2023/05/12 09:21:26;;;;;;;0.10;0.10;;;20.90;89.10;;;;;;4994111;28;20027;-46
2023/05/12 09:23:56;;;;;;;0.10;0.10;;;20.90;92.60;;;;;;4994713;28;20512;-42
2023/05/12 09:26:22;;;;;;;0.10;0.10;;;21.20;90.50;;;;;;5028906;28;20117;-45
2023/05/12 09:28:49;;;;;;;0.10;0.10;;;21.70;92.00;;;;;;5013915;28;20034;-44
2023/05/12 09:31:21;;;;;;;0.17;0.17;;;21.70;90.70;;;;;;5013621;28;20075;-51
2023/05/12 09:33:47;;;;;;;0.08;0.08;;;21.40;92.30;;;;;;5012930;28;20033;-44
2023/05/12 09:36:22;;;;;;;0.10;0.10;;;21.00;90.10;;;;;;4995104;28;20019;-43
2023/05/12 09:39:05;;;;;;;0.10;0.10;;;20.00;87.90;;;;;;4993909;28;20046;-45
2023/05/12 09:41:38;;;;;;;0.10;0.10;;;19.20;92.00;;;;;;4993646;28;20046;-45
2023/05/12 09:44:05;;;;;;;0.10;0.10;;;18.70;93.00;;;;;;4993930;28;20030;-43
2023/05/12 09:46:31;;;;;;;0.10;0.10;;;18.20;94.00;;;;;;4992466;28;20030;-48
2023/05/12 09:48:58;;;;;;;0.10;0.10;;;17.90;95.80;;;;;;4991860;28;20026;-48
2023/05/12 09:51:24;;;;;;;0.10;0.10;;;17.80;98.10;;;;;;4992409;28;20581;-42
2023/05/12 09:53:50;;;;;;;0.30;0.20;;;17.60;98.70;;;;;;4992804;28;20038;-45
2023/05/12 09:56:17;;;;;;;0.20;0.20;;;17.40;98.60;;;;;;4993232;28;20033;-42
2023/05/12 09:58:46;;;;;;;0.17;0.10;;;16.80;98.60;;;;;;4993439;28;20027;-52
2023/05/12 10:01:16;;;;;;;0.10;0.10;;;16.50;99.90;;;;;;5000639;28;20033;-51
2023/05/12 10:03:44;;;;;;;0.10;0.10;;;16.30;99.90;;;;;;4985877;28;20034;-41
2023/05/12 10:06:41;;;;;;;0.10;0.10;;;16.20;99.90;;;;;;4996298;28;20584;-48
2023/05/12 10:09:27;;;;;;;0.63;0.40;;;16.00;99.90;;;;;;4991286;28;20054;-48
2023/05/12 10:11:53;;;;;;;0.10;0.10;;;15.70;99.90;;;;;;4990736;28;20530;-49
2023/05/12 10:14:21;;;;;;;0.20;0.20;;;15.70;99.90;;;;;;4993508;28;20133;-51
2023/05/12 10:16:49;;;;;;;0.10;0.10;;;15.60;99.90;;;;;;4993176;28;20025;-41
2023/05/12 10:19:15;;;;;;;0.10;0.10;;;15.60;99.90;;;;;;4993287;28;20061;-51
2023/05/12 10:21:45;;;;;;;0.10;0.10;;;15.50;99.90;;;;;;5004810;28;20021;-44
2023/05/12 10:24:15;;;;;;;0.10;0.10;;;15.50;99.90;;;;;;5006060;28;20109;-43
2023/05/12 10:26:41;;;;;;;0.40;0.22;;;15.60;99.90;;;;;;5011584;28;20025;-47
2023/05/12 10:29:08;;;;;;;0.17;0.17;;;15.60;99.90;;;;;;5012698;28;20125;-46
2023/05/12 10:31:35;;;;;;;0.10;0.10;;;15.70;99.90;;;;;;5004160;28;20053;-44
2023/05/12 10:34:02;;;;;;;0.10;0.10;;;15.80;99.90;;;;;;4993004;28;20201;-43
2023/05/12 10:36:28;;;;;;;0.10;0.10;;;15.90;99.90;;;;;;4992875;28;20018;-47
2023/05/12 10:38:55;;;;;;;0.20;0.20;;;15.90;99.90;;;;;;4992946;28;20129;-39
2023/05/12 10:41:31;;;;;;;0.10;0.10;;;16.00;99.90;;;;;;4992774;28;20121;-46
2023/05/12 10:43:57;;;;;;;0.10;0.10;;;15.90;99.90;;;;;;4998650;28;20065;-45
2023/05/12 10:46:25;;;;;;;0.32;0.32;;;15.90;99.90;;;;;;5010218;28;20026;-43
2023/05/12 10:49:08;;;;;;;0.10;0.10;;;15.60;99.90;;;;;;4995547;28;20026;-41
2023/05/12 10:51:49;;;;;;;0.10;0.10;;;15.60;99.90;;;;;;5004522;28;20026;-44
2023/05/12 10:54:20;;;;;;;0.10;0.10;;;15.60;99.90;;;;;;5002375;28;20065;-44
2023/05/12 10:56:46;;;;;;;0.10;0.10;;;15.60;99.90;;;;;;4998488;28;20050;-44
2023/05/12 10:59:20;;;;;;;0.20;0.20;;;15.40;99.90;;;;;;4992240;28;20096;-46
2023/05/12 11:02:04;;;;;;;0.20;0.20;;;15.30;99.90;;;;;;4992491;28;20057;-51
2023/05/12 11:04:40;;;;;;;0.10;0.10;;;15.30;99.90;;;;;;4992331;28;20026;-45
2023/05/12 11:07:08;;;;;;;0.20;0.20;;;15.30;99.90;;;;;;4992020;28;20022;-39
2023/05/12 11:09:42;;;;;;;0.10;0.10;;;15.40;99.90;;;;;;4991882;28;20110;-41
2023/05/12 11:12:09;;;;;;;0.10;0.10;;;15.60;99.90;;;;;;5010844;28;20028;-41
2023/05/12 11:14:36;;;;;;;0.20;0.20;;;15.60;99.90;;;;;;4992336;28;20408;-40
2023/05/12 11:17:02;;;;;;;0.10;0.10;;;15.70;99.90;;;;;;4993465;28;20094;-41
2023/05/12 11:19:28;;;;;;;0.10;0.10;;;15.70;99.90;;;;;;4993347;28;20444;-42
2023/05/12 11:21:54;;;;;;;0.10;0.10;;;15.60;99.90;;;;;;4991724;28;20493;-42
2023/05/12 11:24:20;;;;;;;0.10;0.10;;;15.50;99.90;;;;;;4995589;28;20026;-48
2023/05/12 11:26:50;;;;;;;0.20;0.20;;;15.20;99.90;;;;;;5011791;28;20032;-50
2023/05/12 11:29:18;;;;;;;0.10;0.10;;;15.00;99.90;;;;;;4995218;28;20105;-41
2023/05/12 11:31:49;;;;;;;0.20;0.20;;;14.90;99.90;;;;;;4992042;28;20030;-51
2023/05/12 11:34:15;;;;;;;0.10;0.10;;;14.90;99.90;;;;;;4991356;28;20504;-46
2023/05/12 11:36:43;;;;;;;0.10;0.10;;;15.00;99.90;;;;;;4991817;28;20034;-44
2023/05/12 11:39:25;;;;;;;0.20;0.20;;;15.20;99.90;;;;;;5001537;28;20026;-60
2023/05/12 11:41:52;;;;;;;0.10;0.10;;;15.10;99.90;;;;;;4998841;28;20038;-61
2023/05/12 11:44:21;;;;;;;0.10;0.10;;;15.00;99.90;;;;;;5005525;28;20389;-62
2023/05/12 11:47:00;;;;;;;0.10;0.10;;;14.90;99.90;;;;;;5005643;28;20018;-61
2023/05/12 11:49:26;;;;;;;0.10;0.10;;;14.70;99.90;;;;;;4996587;28;20095;-61
2023/05/12 11:51:57;;;;;;;0.10;0.10;;;14.60;99.90;;;;;;4996591;28;20015;-59
2023/05/12 11:54:24;;;;;;;0.10;0.10;;;14.50;99.90;;;;;;4991307;28;20042;-62
2023/05/12 11:56:54;;;;;;;0.10;0.10;;;14.50;99.90;;;;;;4983093;28;20078;-61
2023/05/12 11:59:26;;;;;;;0.10;0.10;;;14.50;99.90;;;;;;4993450;28;20026;-53
2023/05/12 12:01:52;;;;;;;0.10;0.10;;;14.40;99.90;;;;;;4991007;28;20034;-44
2023/05/12 12:04:18;;;;;;;0.10;0.10;;;14.30;99.90;;;;;;4991488;28;20405;-52
2023/05/12 12:06:45;;;;;;;0.10;0.10;;;14.30;99.90;;;;;;4991292;28;20379;-42
2023/05/12 12:09:11;;;;;;;0.10;0.10;;;14.20;99.90;;;;;;4991267;28;20023;-42
2023/05/12 12:11:37;;;;;;;0.10;0.10;;;14.20;99.90;;;;;;4991072;28;20065;-49
2023/05/12 12:14:03;;;;;;;0.10;0.10;;;14.10;99.90;;;;;;4991063;28;20536;-50
2023/05/12 12:16:30;;;;;;;0.10;0.10;;;13.90;99.90;;;;;;4993079;28;20593;-51
2023/05/12 12:18:57;;;;;;;0.10;0.10;;;13.90;99.90;;;;;;4983150;28;20034;-44
2023/05/12 12:21:25;;;;;;;0.20;0.20;;;13.80;99.90;;;;;;4990866;28;20026;-42
2023/05/12 12:23:51;;;;;;;0.10;0.10;;;13.90;99.90;;;;;;4991534;28;20426;-47
2023/05/12 12:26:19;;;;;;;0.20;0.20;;;13.80;99.90;;;;;;5010857;28;20114;-51
2023/05/12 12:28:48;;;;;;;0.15;0.15;;;13.70;99.90;;;;;;4997080;28;20109;-49
2023/05/12 12:31:15;;;;;;;0.20;0.20;;;13.70;99.90;;;;;;4995783;28;20092;-53
2023/05/12 12:33:41;;;;;;;0.20;0.20;;;13.70;99.90;;;;;;4999259;28;20044;-45
2023/05/12 12:36:07;;;;;;;0.32;0.20;;;13.60;99.90;;;;;;5003950;28;20026;-41
2023/05/12 12:38:32;;;;;;;0.10;0.10;;;13.70;99.90;;;;;;4997533;28;20354;-40
2023/05/12 12:40:59;;;;;;;0.10;0.10;;;13.70;99.90;;;;;;5004192;28;20524;-51
2023/05/12 12:43:25;;;;;;;0.20;0.20;;;13.70;99.90;;;;;;5001523;28;20543;-41
2023/05/12 12:45:51;;;;;;;0.10;0.10;;;13.80;99.90;;;;;;5005198;28;20481;-42
2023/05/12 12:48:17;;;;;;;0.10;0.10;;;13.70;99.90;;;;;;5000697;28;20026;-41